Time;durP1;ratioP1;P1;durP2;ratioP2;P2;SDS_P1;SDS_P2;PMS_P1;PMS_P2;Temp;Humidity;BMP_temperature;BMP_pressure;BME280_temperature;BME280_humidity;BME280_pressure;Samples;Min_cycle;Max_cycle;Signal;HPM_P1;HPM_P2
2023/09/28 00:00:43;;;;;;;14.27;6.40;;;;;;;15.31;54.07;101255.03;4955493;28;20035;-70
2023/09/28 00:03:09;;;;;;;9.48;7.07;;;;;;;15.34;53.99;101257.50;4961011;28;20053;-70
2023/09/28 00:05:35;;;;;;;7.68;6.40;;;;;;;15.34;53.82;101239.06;4956820;28;20030;-67
2023/09/28 00:08:02;;;;;;;10.95;7.95;;;;;;;15.32;54.33;101239.13;4946706;28;20231;-68
2023/09/28 00:10:30;;;;;;;7.45;6.57;;;;;;;15.39;53.81;101258.09;4957956;28;20052;-70
2023/09/28 00:12:55;;;;;;;9.38;7.25;;;;;;;15.14;54.65;101261.16;4967546;28;20129;-70
2023/09/28 00:15:24;;;;;;;8.75;6.32;;;;;;;15.29;54.43;101265.66;4962186;28;20587;-70
2023/09/28 00:17:51;;;;;;;7.53;6.55;;;;;;;15.38;54.04;101266.94;4958453;28;20105;-69
2023/09/28 00:20:18;;;;;;;6.32;5.72;;;;;;;15.48;53.92;101278.69;4962683;28;20077;-70
2023/09/28 00:22:48;;;;;;;10.02;6.28;;;;;;;15.44;53.61;101292.94;4957476;28;20050;-70
2023/09/28 00:25:16;;;;;;;6.97;6.28;;;;;;;15.35;54.42;101299.56;4967187;28;20046;-69
2023/09/28 00:27:47;;;;;;;6.88;5.35;;;;;;;15.33;54.13;101311.13;4957139;28;20093;-69
2023/09/28 00:30:18;;;;;;;9.20;5.78;;;;;;;15.31;54.41;101312.97;4968846;28;20046;-68
2023/09/28 00:32:47;;;;;;;9.38;5.43;;;;;;;15.34;54.25;101297.00;4965869;28;20060;-68
2023/09/28 00:35:13;;;;;;;8.38;6.57;;;;;;;15.37;54.14;101292.44;4989943;28;20153;-69
2023/09/28 00:37:39;;;;;;;7.85;5.70;;;;;;;15.32;54.18;101298.88;4973629;28;20058;-69
2023/09/28 00:40:50;;;;;;;5.30;4.45;;;;;;;15.40;53.79;101296.69;4984342;28;20060;-69
2023/09/28 00:42:51;;;;;;;7.53;5.45;;;;;;;15.43;53.56;101307.03;4990844;28;20046;-68
2023/09/28 00:45:21;;;;;;;7.25;5.50;;;;;;;15.41;53.96;101295.72;4979225;28;20049;-68
2023/09/28 00:47:50;;;;;;;5.93;5.38;;;;;;;15.39;53.94;101300.22;4982966;28;20064;-68
2023/09/28 00:50:20;;;;;;;6.65;5.35;;;;;;;15.37;53.80;101302.09;4978982;28;20021;-70
2023/09/28 00:52:57;;;;;;;6.47;5.55;;;;;;;15.36;54.05;101293.34;4975493;28;20492;-70
2023/09/28 00:55:24;;;;;;;6.35;5.20;;;;;;;15.41;53.93;101302.78;4980259;28;20045;-70
2023/09/28 00:57:50;;;;;;;5.80;5.03;;;;;;;15.34;54.20;101289.09;4979177;28;21315;-70
2023/09/28 01:00:35;;;;;;;5.88;5.30;;;;;;;15.39;54.23;101284.44;4979258;28;20036;-70
2023/09/28 01:03:05;;;;;;;5.47;4.90;;;;;;;15.42;54.01;101265.84;4983104;28;20038;-70
2023/09/28 01:05:40;;;;;;;6.80;5.50;;;;;;;15.38;54.20;101265.16;4991290;28;20407;-70
2023/09/28 01:08:12;;;;;;;5.18;4.68;;;;;;;15.46;53.63;101263.88;4978865;28;20046;-70
2023/09/28 01:10:40;;;;;;;7.85;5.05;;;;;;;15.44;53.50;101260.47;4973470;28;20045;-68
2023/09/28 01:13:11;;;;;;;8.55;5.47;;;;;;;15.46;53.89;101254.22;4977315;28;20129;-67
2023/09/28 01:15:38;;;;;;;7.57;5.87;;;;;;;15.56;53.46;101244.00;4992583;28;20165;-68
2023/09/28 01:18:04;;;;;;;6.72;5.50;;;;;;;15.63;53.12;101241.88;4966793;28;20308;-68
2023/09/28 01:20:37;;;;;;;6.10;5.25;;;;;;;15.59;52.90;101234.16;4985541;28;20038;-68
2023/09/28 01:23:04;;;;;;;8.18;5.05;;;;;;;15.70;52.89;101225.63;4982235;28;20050;-70
2023/09/28 01:25:31;;;;;;;5.13;4.63;;;;;;;15.67;52.86;101239.00;4971936;28;20038;-71
2023/09/28 01:27:56;;;;;;;7.15;5.13;;;;;;;15.73;52.76;101251.00;4960843;28;20064;-70
2023/09/28 01:30:23;;;;;;;8.48;4.78;;;;;;;15.76;52.85;101250.81;4978529;28;20046;-70
2023/09/28 01:32:48;;;;;;;6.65;5.43;;;;;;;15.68;52.57;101248.56;4976917;28;20096;-69
2023/09/28 01:35:14;;;;;;;6.90;5.38;;;;;;;15.42;53.10;101244.78;4979688;28;20034;-69
2023/09/28 01:37:52;;;;;;;6.55;5.03;;;;;;;15.68;52.33;101238.03;4977346;28;20130;-70
2023/09/28 01:40:18;;;;;;;5.47;4.60;;;;;;;15.79;51.94;101240.94;4978726;28;20034;-70
2023/09/28 01:42:44;;;;;;;7.45;4.88;;;;;;;15.79;52.52;101232.16;4973065;28;20112;-70
2023/09/28 01:45:11;;;;;;;7.00;5.25;;;;;;;15.80;51.91;101225.97;4985733;28;20061;-70
2023/09/28 01:47:37;;;;;;;7.07;4.75;;;;;;;15.78;52.18;101222.56;4977160;28;20073;-69
2023/09/28 01:50:03;;;;;;;6.97;4.20;;;;;;;15.79;52.16;101229.53;4980090;28;20034;-70
2023/09/28 01:52:29;;;;;;;5.85;5.05;;;;;;;15.89;51.94;101219.34;4979831;28;20079;-69
2023/09/28 01:54:55;;;;;;;5.03;4.38;;;;;;;15.91;51.55;101217.47;4979605;28;21526;-70
2023/09/28 01:57:21;;;;;;;4.57;4.18;;;;;;;15.89;51.60;101224.63;4986490;28;20058;-69
2023/09/28 01:59:47;;;;;;;7.50;5.10;;;;;;;15.78;51.88;101222.56;4981774;28;20088;-70
2023/09/28 02:02:12;;;;;;;6.38;5.07;;;;;;;15.84;51.99;101201.16;4979301;28;20161;-69
2023/09/28 02:04:39;;;;;;;5.15;4.70;;;;;;;15.82;52.19;101205.66;4977785;28;20178;-70
2023/09/28 02:07:04;;;;;;;6.95;5.20;;;;;;;15.80;52.03;101204.91;4991433;28;20381;-73
2023/09/28 02:09:31;;;;;;;5.80;5.20;;;;;;;15.88;51.69;101207.91;4980699;28;20038;-72
2023/09/28 02:11:57;;;;;;;6.80;5.30;;;;;;;15.84;51.83;101209.06;4974903;28;20042;-72
2023/09/28 02:14:23;;;;;;;6.40;5.70;;;;;;;15.83;51.85;101209.97;4983699;28;20038;-72
2023/09/28 02:16:50;;;;;;;5.85;4.70;;;;;;;15.87;51.60;101208.03;4957800;28;20136;-71
2023/09/28 02:19:16;;;;;;;7.43;5.65;;;;;;;15.74;52.01;101210.50;4981294;28;20105;-71
2023/09/28 02:21:42;;;;;;;7.90;5.70;;;;;;;15.85;51.41;101213.38;4963215;28;20048;-70
2023/09/28 02:24:08;;;;;;;6.20;5.55;;;;;;;15.83;51.83;101204.72;4984825;28;20042;-70
2023/09/28 02:26:34;;;;;;;8.27;5.68;;;;;;;15.70;51.93;101206.34;4982838;28;20230;-70
2023/09/28 02:29:00;;;;;;;8.27;5.55;;;;;;;15.72;51.81;101202.69;4984512;28;20050;-70
2023/09/28 02:31:25;;;;;;;9.30;5.50;;;;;;;15.80;51.88;101207.53;4974086;28;20704;-70
2023/09/28 02:33:51;;;;;;;7.72;6.93;;;;;;;15.78;51.88;101212.03;4983617;28;20042;-70
2023/09/28 02:36:16;;;;;;;10.13;6.75;;;;;;;15.44;52.63;101219.19;4986940;28;20064;-71
2023/09/28 02:38:43;;;;;;;11.80;7.00;;;;;;;15.72;51.92;101220.28;4965499;28;20049;-71
2023/09/28 02:41:19;;;;;;;9.48;5.88;;;;;;;15.71;51.72;101227.34;4981545;28;20483;-71
2023/09/28 02:43:45;;;;;;;8.45;6.20;;;;;;;15.69;51.98;101228.38;4978005;28;20060;-70
2023/09/28 02:46:11;;;;;;;6.63;5.70;;;;;;;15.28;52.73;101229.72;4979236;28;20117;-71
2023/09/28 02:48:37;;;;;;;8.20;5.40;;;;;;;15.56;52.06;101229.03;4985082;28;20054;-69
2023/09/28 02:51:04;;;;;;;8.98;6.22;;;;;;;15.68;52.08;101226.66;4972325;28;20065;-69
2023/09/28 02:53:35;;;;;;;7.75;5.55;;;;;;;15.83;51.18;101233.69;4975813;28;20081;-75
2023/09/28 02:56:01;;;;;;;6.40;4.95;;;;;;;15.84;51.29;101224.88;4983186;28;20437;-74
2023/09/28 02:58:26;;;;;;;6.63;5.05;;;;;;;15.86;51.10;101230.88;4989870;28;20038;-72
2023/09/28 03:00:53;;;;;;;6.68;5.53;;;;;;;15.83;51.25;101225.78;4964180;28;20052;-68
2023/09/28 03:03:19;;;;;;;7.68;5.82;;;;;;;15.64;51.56;101225.13;4979919;28;20439;-68
2023/09/28 03:05:44;;;;;;;7.95;4.78;;;;;;;15.50;52.18;101228.53;4978196;28;20061;-71
2023/09/28 03:08:14;;;;;;;5.90;4.65;;;;;;;15.70;51.28;101230.06;4984718;28;20084;-71
2023/09/28 03:10:43;;;;;;;7.97;4.95;;;;;;;15.65;51.54;101230.31;4979947;28;20030;-70
2023/09/28 03:13:10;;;;;;;9.48;5.88;;;;;;;15.31;52.38;101234.81;4979298;28;20050;-66
2023/09/28 03:15:36;;;;;;;7.00;4.80;;;;;;;15.67;51.43;101235.50;4997506;28;20457;-66
2023/09/28 03:18:02;;;;;;;8.50;5.43;;;;;;;15.66;51.70;101244.34;4976956;28;20053;-70
2023/09/28 03:20:30;;;;;;;6.65;5.10;;;;;;;15.72;51.06;101228.19;4984366;28;20437;-70
2023/09/28 03:22:55;;;;;;;5.80;4.97;;;;;;;15.65;51.68;101227.69;4992962;28;20041;-69
2023/09/28 03:25:22;;;;;;;8.75;5.13;;;;;;;15.54;51.83;101235.34;4981258;28;20738;-70
2023/09/28 03:27:52;;;;;;;10.30;5.93;;;;;;;15.24;52.89;101232.59;4962774;28;20053;-70
2023/09/28 03:30:20;;;;;;;8.35;5.50;;;;;;;15.36;52.51;101235.41;4995638;28;20042;-70
2023/09/28 03:32:47;;;;;;;6.63;5.47;;;;;;;15.42;52.41;101231.59;4977262;28;20068;-70
2023/09/28 03:35:13;;;;;;;7.15;5.22;;;;;;;15.44;52.14;101234.13;4982088;28;20053;-69
2023/09/28 03:37:41;;;;;;;6.95;5.43;;;;;;;15.30;52.36;101230.47;4983887;28;20656;-71
2023/09/28 03:40:10;;;;;;;6.25;5.38;;;;;;;15.36;52.53;101242.47;4981723;28;21458;-70
2023/09/28 03:42:50;;;;;;;7.03;5.18;;;;;;;15.30;52.51;101238.38;4982036;28;20080;-70
2023/09/28 03:45:20;;;;;;;6.28;5.15;;;;;;;15.30;52.50;101250.69;4982756;28;20113;-64
2023/09/28 03:47:48;;;;;;;9.85;5.20;;;;;;;15.14;53.16;101246.22;4965133;28;20058;-65
2023/09/28 03:50:14;;;;;;;6.40;5.03;;;;;;;15.18;53.06;101257.44;4987738;28;20068;-65
2023/09/28 03:52:41;;;;;;;6.82;4.82;;;;;;;15.11;53.09;101270.09;4985285;28;20485;-65
2023/09/28 03:55:18;;;;;;;9.68;5.82;;;;;;;15.02;53.35;101265.31;4977997;28;20030;-66
2023/09/28 03:57:44;;;;;;;7.47;5.95;;;;;;;14.86;53.58;101259.16;4977393;28;20129;-65
2023/09/28 04:00:15;;;;;;;8.88;6.43;;;;;;;14.82;53.84;101263.72;4980718;28;20042;-67
2023/09/28 04:02:42;;;;;;;7.50;5.90;;;;;;;14.82;53.92;101273.41;4978132;28;20072;-67
2023/09/28 04:05:09;;;;;;;7.28;6.13;;;;;;;14.71;54.16;101272.16;4979396;28;20558;-68
2023/09/28 04:07:35;;;;;;;5.75;5.00;;;;;;;14.87;53.69;101274.84;4978849;28;20054;-70
2023/09/28 04:10:00;;;;;;;7.25;6.45;;;;;;;14.88;53.51;101275.69;4979616;28;20080;-70
2023/09/28 04:12:27;;;;;;;6.57;5.90;;;;;;;14.68;54.26;101280.22;4978282;28;20050;-71
2023/09/28 04:14:53;;;;;;;7.65;6.65;;;;;;;14.61;54.68;101278.81;4977458;28;20041;-71
2023/09/28 04:17:19;;;;;;;7.05;5.35;;;;;;;14.75;54.07;101273.69;4982202;28;20136;-70
2023/09/28 04:19:44;;;;;;;6.45;5.35;;;;;;;14.54;54.52;101274.78;4980164;28;20161;-72
2023/09/28 04:22:10;;;;;;;7.55;6.22;;;;;;;14.58;54.23;101271.06;4978927;28;20058;-70
2023/09/28 04:24:35;;;;;;;7.10;5.72;;;;;;;14.60;54.27;101277.13;4980288;28;20034;-68
2023/09/28 04:27:00;;;;;;;8.07;5.25;;;;;;;14.52;54.49;101281.91;4984391;28;20112;-68
2023/09/28 04:29:27;;;;;;;7.88;5.70;;;;;;;14.30;55.16;101282.94;4980683;28;20124;-69
2023/09/28 04:31:53;;;;;;;10.35;6.93;;;;;;;14.26;55.39;101286.66;4976738;28;20042;-68
2023/09/28 04:34:20;;;;;;;8.07;6.47;;;;;;;14.34;55.06;101289.78;4984743;28;20031;-68
2023/09/28 04:36:46;;;;;;;7.80;6.25;;;;;;;14.31;55.07;101295.16;4977885;28;20124;-68
2023/09/28 04:39:13;;;;;;;8.15;6.05;;;;;;;14.18;55.43;101293.22;4980691;28;20137;-69
2023/09/28 04:41:40;;;;;;;6.30;5.50;;;;;;;14.21;55.28;101290.41;4981315;28;20069;-68
2023/09/28 04:44:06;;;;;;;6.32;5.72;;;;;;;14.22;55.27;101300.88;4953674;28;20417;-69
2023/09/28 04:46:32;;;;;;;7.25;5.82;;;;;;;14.22;55.05;101306.13;4947608;28;20035;-69
2023/09/28 04:48:58;;;;;;;8.07;6.18;;;;;;;14.13;55.50;101301.31;4954845;28;20048;-70
2023/09/28 04:51:23;;;;;;;8.10;6.00;;;;;;;14.20;55.24;101299.25;4966532;28;20149;-69
2023/09/28 04:53:49;;;;;;;6.15;5.10;;;;;;;14.18;55.40;101299.31;4956413;28;20042;-69
2023/09/28 04:56:17;;;;;;;8.38;5.55;;;;;;;13.71;56.65;101307.69;4958682;28;20584;-69
2023/09/28 04:58:43;;;;;;;8.13;4.97;;;;;;;14.13;55.38;101298.69;4980068;28;20215;-71
2023/09/28 05:01:09;;;;;;;9.02;6.55;;;;;;;14.12;55.40;101295.22;4976289;28;20088;-69
2023/09/28 05:03:35;;;;;;;6.22;5.40;;;;;;;14.05;55.74;101293.78;4984463;28;20050;-69
2023/09/28 05:06:01;;;;;;;12.25;5.25;;;;;;;14.15;55.35;101304.72;4959562;28;20236;-70
2023/09/28 05:08:26;;;;;;;7.45;5.72;;;;;;;14.21;54.96;101299.19;4980260;28;20030;-67
2023/09/28 05:10:53;;;;;;;7.78;5.82;;;;;;;13.91;55.95;101307.59;4975343;28;20433;-68
2023/09/28 05:13:20;;;;;;;12.73;5.88;;;;;;;14.07;55.41;101306.88;4978980;28;20042;-67
2023/09/28 05:15:46;;;;;;;6.45;5.70;;;;;;;13.87;56.44;101311.28;4979567;28;20057;-69
2023/09/28 05:18:12;;;;;;;7.65;5.63;;;;;;;13.94;56.15;101320.59;4969094;28;20066;-70
2023/09/28 05:20:39;;;;;;;7.82;6.05;;;;;;;13.95;56.30;101313.56;4980042;28;20076;-71
2023/09/28 05:23:06;;;;;;;9.13;5.80;;;;;;;14.07;55.49;101310.34;4981131;28;20550;-68
2023/09/28 05:25:33;;;;;;;9.20;6.38;;;;;;;13.69;56.90;101317.41;4986017;28;20120;-68
2023/09/28 05:28:00;;;;;;;7.85;6.28;;;;;;;13.91;56.24;101328.63;4974000;28;20124;-68
2023/09/28 05:30:26;;;;;;;9.93;5.95;;;;;;;14.01;55.84;101322.91;4978858;28;20029;-68
2023/09/28 05:32:51;;;;;;;7.82;5.53;;;;;;;14.15;55.74;101326.59;4975955;28;20444;-71
2023/09/28 05:35:17;;;;;;;11.75;6.13;;;;;;;14.03;56.08;101331.59;4977317;28;20038;-70
2023/09/28 05:37:43;;;;;;;8.45;6.07;;;;;;;14.18;55.54;101330.84;4977198;28;20042;-70
2023/09/28 05:40:09;;;;;;;7.47;6.05;;;;;;;14.18;55.51;101330.00;4975067;28;20130;-69
2023/09/28 05:42:36;;;;;;;8.40;6.00;;;;;;;14.07;55.71;101334.00;4976824;28;20125;-71
2023/09/28 05:45:02;;;;;;;10.07;5.18;;;;;;;14.19;55.64;101332.56;4988184;28;20034;-72
2023/09/28 05:47:28;;;;;;;11.48;6.95;;;;;;;14.08;55.90;101342.75;4978164;28;20069;-73
2023/09/28 05:49:54;;;;;;;10.93;5.85;;;;;;;14.11;55.74;101335.56;4976003;28;20599;-71
2023/09/28 05:52:20;;;;;;;9.45;6.70;;;;;;;13.92;56.57;101342.63;4979480;28;20058;-70
2023/09/28 05:54:46;;;;;;;8.60;6.47;;;;;;;14.20;55.68;101352.66;4976995;28;20077;-70
2023/09/28 05:57:13;;;;;;;9.68;4.93;;;;;;;14.26;55.42;101343.66;4973898;28;20049;-71
2023/09/28 05:59:39;;;;;;;10.77;7.25;;;;;;;14.25;55.48;101355.91;4982438;28;20044;-67
2023/09/28 06:02:05;;;;;;;10.35;5.80;;;;;;;14.28;55.51;101360.22;4984269;28;20038;-67
2023/09/28 06:04:30;;;;;;;6.07;5.15;;;;;;;14.32;55.50;101362.63;4967653;28;20037;-66
2023/09/28 06:06:56;;;;;;;7.93;5.82;;;;;;;14.44;55.24;101353.31;4977727;28;20096;-67
2023/09/28 06:09:22;;;;;;;8.63;5.07;;;;;;;14.48;54.84;101360.13;4986222;28;20030;-67
2023/09/28 06:11:48;;;;;;;7.70;5.55;;;;;;;14.35;55.62;101359.81;4981122;28;20036;-67
2023/09/28 06:14:15;;;;;;;8.85;5.90;;;;;;;14.61;54.92;101364.75;4967656;28;20025;-66
2023/09/28 06:16:42;;;;;;;8.18;5.55;;;;;;;14.68;54.41;101356.50;4988450;28;20034;-68
2023/09/28 06:19:09;;;;;;;7.75;5.95;;;;;;;14.65;54.84;101372.44;4977942;28;20108;-66
2023/09/28 06:21:35;;;;;;;6.50;5.43;;;;;;;14.75;54.51;101376.31;4981987;28;20225;-66
2023/09/28 06:24:02;;;;;;;10.18;5.93;;;;;;;14.89;54.25;101380.03;4976751;28;20050;-66
2023/09/28 06:26:28;;;;;;;9.48;5.95;;;;;;;15.33;53.58;101379.59;4979670;28;20030;-68
2023/09/28 06:28:54;;;;;;;10.55;5.22;;;;;;;15.76;52.53;101390.47;4977615;28;20038;-69
2023/09/28 06:31:20;;;;;;;6.57;5.38;;;;;;;16.07;51.51;101394.97;4987837;28;20117;-67
2023/09/28 06:33:48;;;;;;;15.38;5.75;;;;;;;16.87;50.02;101402.78;4967597;28;20042;-71
2023/09/28 06:36:15;;;;;;;9.95;5.78;;;;;;;17.37;47.82;101412.16;4955064;28;20039;-71
2023/09/28 06:38:41;;;;;;;6.90;5.18;;;;;;;17.82;46.79;101413.78;4962767;28;20038;-71
2023/09/28 06:41:06;;;;;;;8.75;5.38;;;;;;;17.80;46.14;101420.13;4971812;28;20571;-71
2023/09/28 06:43:32;;;;;;;5.25;4.70;;;;;;;18.93;43.88;101419.97;4960766;28;20064;-68
2023/09/28 06:45:58;;;;;;;6.93;4.32;;;;;;;19.87;42.16;101424.16;4957140;28;20034;-70
2023/09/28 06:48:26;;;;;;;6.35;4.03;;;;;;;19.97;41.12;101419.88;4973436;28;20077;-69
2023/09/28 06:50:56;;;;;;;6.60;3.70;;;;;;;20.25;42.24;101425.88;4983588;28;20053;-70
2023/09/28 06:53:21;;;;;;;8.02;4.75;;;;;;;19.36;42.94;101421.50;4980123;28;20170;-70
2023/09/28 06:55:46;;;;;;;5.30;3.45;;;;;;;20.03;41.54;101427.38;4982061;28;20671;-70
2023/09/28 06:58:14;;;;;;;8.23;4.05;;;;;;;20.62;41.10;101433.78;4977372;28;20552;-71
2023/09/28 07:00:42;;;;;;;11.82;4.57;;;;;;;20.87;41.19;101433.69;4986654;28;20026;-70
2023/09/28 07:03:11;;;;;;;7.45;4.30;;;;;;;20.79;40.82;101441.34;4979910;28;20060;-67
2023/09/28 07:05:38;;;;;;;8.48;5.43;;;;;;;19.55;42.11;101435.22;4980210;28;20030;-68
2023/09/28 07:08:05;;;;;;;5.13;3.25;;;;;;;18.99;44.32;101435.44;4976526;28;20038;-71
2023/09/28 07:10:32;;;;;;;5.35;4.00;;;;;;;20.23;41.50;101441.06;4980718;28;20401;-71
2023/09/28 07:13:00;;;;;;;6.28;3.95;;;;;;;20.81;39.90;101438.59;4977552;28;20144;-70
2023/09/28 07:15:30;;;;;;;8.88;3.67;;;;;;;20.92;39.67;101450.13;4983643;28;20057;-69
2023/09/28 07:17:56;;;;;;;5.88;3.17;;;;;;;20.39;40.39;101462.88;4974876;28;20042;-70
2023/09/28 07:20:23;;;;;;;4.68;3.22;;;;;;;20.02;41.36;101459.34;4980096;28;20048;-70
2023/09/28 07:22:49;;;;;;;7.95;2.70;;;;;;;20.45;40.11;101461.59;4979248;28;20034;-69
2023/09/28 07:25:15;;;;;;;5.13;2.72;;;;;;;20.72;41.64;101464.03;4976010;28;20680;-70
2023/09/28 07:27:42;;;;;;;5.25;3.33;;;;;;;21.33;38.76;101463.88;4979908;28;20049;-73
2023/09/28 07:30:08;;;;;;;8.93;2.30;;;;;;;21.61;38.28;101465.31;4961642;28;20030;-68
2023/09/28 07:32:34;;;;;;;8.60;3.00;;;;;;;22.00;37.48;101470.25;4984535;28;20122;-70
2023/09/28 07:35:00;;;;;;;5.75;2.20;;;;;;;21.40;39.00;101480.22;4993149;28;20038;-67
2023/09/28 07:37:27;;;;;;;5.60;2.53;;;;;;;21.67;38.39;101483.47;4979396;28;20077;-69
2023/09/28 07:39:53;;;;;;;11.35;2.25;;;;;;;22.51;36.42;101480.38;4979800;28;20089;-70
2023/09/28 07:42:19;;;;;;;3.85;2.00;;;;;;;22.29;36.67;101478.59;4977018;28;20046;-67
2023/09/28 07:44:44;;;;;;;8.52;2.25;;;;;;;22.06;36.88;101489.25;4982747;28;20711;-68
2023/09/28 07:47:10;;;;;;;9.00;3.65;;;;;;;22.13;37.01;101482.50;4978115;28;20122;-67
2023/09/28 07:49:36;;;;;;;7.63;2.08;;;;;;;20.80;39.21;101484.69;4977279;28;20038;-67
2023/09/28 07:52:02;;;;;;;10.65;2.65;;;;;;;21.87;37.59;101491.66;4976267;28;20042;-67
2023/09/28 07:54:28;;;;;;;6.22;2.30;;;;;;;22.88;36.27;101488.88;4980461;28;20190;-67
2023/09/28 07:56:55;;;;;;;8.95;2.33;;;;;;;23.03;35.19;101499.22;4980194;28;20091;-68
2023/09/28 07:59:21;;;;;;;7.18;2.05;;;;;;;22.57;36.29;101494.03;4981395;28;20064;-68
2023/09/28 08:01:48;;;;;;;10.15;2.15;;;;;;;21.84;37.72;101505.22;4979777;28;20675;-67
2023/09/28 08:04:13;;;;;;;10.75;2.45;;;;;;;21.15;39.14;101511.31;4981978;28;20029;-68
2023/09/28 08:06:42;;;;;;;7.35;2.03;;;;;;;21.72;37.47;101513.19;4979598;28;20030;-69
2023/09/28 08:09:13;;;;;;;12.23;3.20;;;;;;;22.17;37.20;101529.22;4977825;28;20046;-69
2023/09/28 08:11:39;;;;;;;8.82;3.22;;;;;;;22.33;36.95;101523.50;4984177;28;20636;-69
2023/09/28 08:14:05;;;;;;;10.82;2.67;;;;;;;22.14;36.79;101513.50;4959519;28;20061;-70
2023/09/28 08:16:30;;;;;;;6.22;2.33;;;;;;;22.20;35.95;101505.97;4969427;28;20481;-70
2023/09/28 08:18:56;;;;;;;10.07;2.45;;;;;;;21.07;38.01;101521.72;4963815;28;20090;-70
2023/09/28 08:21:24;;;;;;;9.73;2.30;;;;;;;21.17;38.70;101528.00;4954611;28;20282;-70
2023/09/28 08:23:51;;;;;;;13.43;2.70;;;;;;;22.18;36.95;101536.25;4956347;28;20070;-70
2023/09/28 08:26:16;;;;;;;12.45;2.60;;;;;;;22.23;36.44;101535.03;4954875;28;20089;-70
2023/09/28 08:28:42;;;;;;;10.40;1.27;;;;;;;23.08;34.88;101534.38;4957608;28;20402;-70
2023/09/28 08:31:09;;;;;;;14.38;2.38;;;;;;;23.36;34.13;101532.91;4955615;28;20129;-70
2023/09/28 08:33:35;;;;;;;6.32;1.58;;;;;;;22.87;34.67;101531.66;4957101;28;20042;-70
2023/09/28 08:36:01;;;;;;;7.45;1.27;;;;;;;22.08;35.55;101535.25;4954494;28;20041;-70
2023/09/28 08:38:26;;;;;;;10.05;1.15;;;;;;;22.70;35.12;101525.06;4958597;28;20081;-70
2023/09/28 08:40:59;;;;;;;7.78;1.65;;;;;;;21.99;35.67;101538.63;4957923;28;20041;-69
2023/09/28 08:43:40;;;;;;;9.82;2.17;;;;;;;21.74;35.78;101545.84;4957342;28;20079;-70
2023/09/28 08:46:09;;;;;;;12.95;1.70;;;;;;;21.46;36.90;101538.25;4954245;28;20104;-70
2023/09/28 08:48:40;;;;;;;9.13;1.63;;;;;;;20.19;39.00;101543.06;4953840;28;20072;-70
2023/09/28 08:51:09;;;;;;;11.88;2.50;;;;;;;20.35;38.81;101551.69;4952558;28;20086;-70
2023/09/28 08:53:48;;;;;;;10.40;2.10;;;;;;;19.39;40.44;101551.16;4955880;28;20101;-70
2023/09/28 08:56:14;;;;;;;7.57;1.63;;;;;;;20.05;39.33;101558.16;4955480;28;20654;-69
2023/09/28 08:58:41;;;;;;;6.85;1.73;;;;;;;19.44;39.96;101549.06;4957617;28;20050;-72
2023/09/28 09:01:07;;;;;;;14.27;2.70;;;;;;;19.83;39.41;101544.66;4955593;28;20670;-70
2023/09/28 09:03:34;;;;;;;15.90;2.05;;;;;;;19.98;40.23;101548.91;4962622;28;20045;-69
2023/09/28 09:06:05;;;;;;;12.18;1.80;;;;;;;19.63;39.96;101556.66;4962086;28;20042;-70
2023/09/28 09:08:34;;;;;;;15.93;1.55;;;;;;;19.32;41.38;101561.31;4957254;28;20042;-70
2023/09/28 09:11:00;;;;;;;9.80;1.27;;;;;;;18.78;42.48;101567.44;4958809;28;20034;-69
2023/09/28 09:13:26;;;;;;;13.02;1.92;;;;;;;18.93;41.83;101570.94;4941735;28;20035;-69
2023/09/28 09:15:52;;;;;;;10.43;1.52;;;;;;;18.41;41.75;101567.13;4966205;28;21251;-70
2023/09/28 09:18:21;;;;;;;14.20;2.85;;;;;;;19.34;39.76;101569.19;4935752;28;20576;-70
2023/09/28 09:20:48;;;;;;;14.10;2.00;;;;;;;20.68;38.01;101566.13;4960232;28;20026;-70
2023/09/28 09:23:15;;;;;;;11.98;1.60;;;;;;;20.06;38.69;101578.44;4954112;28;20047;-69
2023/09/28 09:25:42;;;;;;;8.48;1.45;;;;;;;19.19;39.41;101587.81;4943070;28;20060;-69
2023/09/28 09:28:08;;;;;;;9.25;1.33;;;;;;;19.50;38.89;101593.69;4960363;28;20038;-70
2023/09/28 09:30:37;;;;;;;14.15;2.13;;;;;;;19.70;39.20;101593.25;4958395;28;20046;-69
2023/09/28 09:33:07;;;;;;;10.90;1.45;;;;;;;19.70;39.32;101593.25;4958531;28;20206;-70
2023/09/28 09:35:33;;;;;;;14.98;1.92;;;;;;;19.45;40.29;101591.34;4961899;28;20034;-70
2023/09/28 09:37:59;;;;;;;6.97;1.48;;;;;;;19.16;41.11;101598.56;4959694;28;20084;-69
2023/09/28 09:40:28;;;;;;;11.27;1.85;;;;;;;18.74;40.42;101603.00;4958787;28;20038;-69
2023/09/28 09:42:53;;;;;;;19.20;2.50;;;;;;;18.98;40.65;101599.78;4959776;28;20049;-69
2023/09/28 09:45:19;;;;;;;15.05;1.83;;;;;;;18.93;39.40;101596.59;4959467;28;20043;-69
2023/09/28 09:47:49;;;;;;;11.85;1.25;;;;;;;18.49;40.34;101598.41;4959461;28;20497;-69
2023/09/28 09:50:16;;;;;;;9.95;1.35;;;;;;;17.86;42.54;101602.22;4959396;28;20033;-69
2023/09/28 09:52:45;;;;;;;11.32;1.73;;;;;;;18.56;41.50;101601.53;4958784;28;20531;-69
2023/09/28 09:55:12;;;;;;;11.55;1.20;;;;;;;19.29;40.52;101596.81;4958956;28;20038;-67
2023/09/28 09:57:38;;;;;;;11.27;1.65;;;;;;;19.30;40.44;101590.59;4967638;28;20042;-69
2023/09/28 10:00:08;;;;;;;6.63;1.58;;;;;;;18.92;41.08;101595.75;4981861;28;20030;-67
2023/09/28 10:02:40;;;;;;;18.07;2.73;;;;;;;19.18;41.01;101603.78;4978046;28;20113;-69
2023/09/28 10:05:08;;;;;;;;;;;;;;;18.70;41.95;101612.09;4958463;28;20039;-69
2023/09/28 10:07:36;;;;;;;8.95;1.83;;;;;;;19.02;41.37;101611.88;4958217;28;20511;-68
2023/09/28 10:10:03;;;;;;;11.68;2.58;;;;;;;18.87;41.70;101619.84;4964500;28;20563;-69
2023/09/28 10:12:30;;;;;;;17.50;1.40;;;;;;;18.35;42.44;101623.09;4968524;28;20480;-67
2023/09/28 10:15:00;;;;;;;12.57;1.55;;;;;;;18.44;41.89;101614.56;4980218;28;20038;-70
2023/09/28 10:17:26;;;;;;;7.28;1.02;;;;;;;18.76;41.30;101622.28;4977409;28;21043;-68
2023/09/28 10:19:54;;;;;;;12.55;1.25;;;;;;;18.17;42.09;101624.19;4977623;28;20072;-67
2023/09/28 10:22:20;;;;;;;16.83;2.40;;;;;;;18.05;42.97;101621.34;4974204;28;20165;-69
2023/09/28 10:24:46;;;;;;;13.02;2.80;;;;;;;18.80;41.53;101626.44;4979287;28;20042;-69
2023/09/28 10:27:11;;;;;;;9.70;1.60;;;;;;;19.02;40.66;101627.78;4974864;28;20164;-69
2023/09/28 10:29:38;;;;;;;16.80;1.60;;;;;;;18.84;41.71;101638.56;4977777;28;20397;-70
2023/09/28 10:32:15;;;;;;;10.63;1.23;;;;;;;18.51;42.11;101640.66;4980923;28;20058;-70
2023/09/28 10:34:43;;;;;;;17.90;2.25;;;;;;;18.79;40.98;101638.00;4974498;28;20725;-70
2023/09/28 10:37:13;;;;;;;10.15;1.42;;;;;;;19.01;40.07;101634.00;4976095;28;20527;-70
2023/09/28 10:39:41;;;;;;;7.88;1.17;;;;;;;19.11;39.73;101637.78;4977465;28;20031;-69
2023/09/28 10:42:15;;;;;;;11.93;1.25;;;;;;;19.56;39.65;101633.09;4982266;28;20053;-72
2023/09/28 10:44:49;;;;;;;12.77;1.55;;;;;;;20.12;38.32;101631.06;4990402;28;20030;-69
2023/09/28 10:47:15;;;;;;;7.07;0.90;;;;;;;18.94;39.85;101636.19;4976743;28;20042;-69
2023/09/28 10:49:41;;;;;;;6.28;1.92;;;;;;;19.15;39.45;101634.00;4992029;28;20085;-69
2023/09/28 10:52:09;;;;;;;13.98;2.50;;;;;;;19.45;39.67;101624.97;4978452;28;20057;-69
2023/09/28 10:54:36;;;;;;;8.48;1.30;;;;;;;20.39;38.08;101627.47;4977199;28;20056;-69
2023/09/28 10:57:02;;;;;;;8.32;1.52;;;;;;;20.11;37.69;101629.38;4984919;28;20544;-69
2023/09/28 10:59:28;;;;;;;12.15;1.30;;;;;;;20.38;38.37;101614.34;4976613;28;20623;-69
2023/09/28 11:01:54;;;;;;;8.30;0.82;;;;;;;21.12;36.64;101612.56;4976055;28;20044;-70
2023/09/28 11:04:20;;;;;;;10.05;1.42;;;;;;;22.08;34.49;101615.13;4960244;28;20577;-69
2023/09/28 11:06:45;;;;;;;13.85;2.42;;;;;;;22.44;34.23;101621.19;4957222;28;20106;-70
2023/09/28 11:09:14;;;;;;;17.75;0.85;;;;;;;22.16;34.48;101609.22;4976718;28;20480;-70
2023/09/28 11:11:43;;;;;;;11.80;1.30;;;;;;;22.89;33.66;101604.31;4977696;28;20460;-70
2023/09/28 11:14:10;;;;;;;12.02;1.63;;;;;;;22.80;33.64;101603.25;4980468;28;20635;-69
2023/09/28 11:16:42;;;;;;;10.27;1.17;;;;;;;22.67;33.62;101600.69;4975802;28;20134;-69
2023/09/28 11:19:11;;;;;;;11.48;2.45;;;;;;;22.21;33.20;101609.69;4977029;28;20747;-69
2023/09/28 11:21:37;;;;;;;9.43;2.38;;;;;;;21.91;33.72;101618.19;4963101;28;20030;-69
2023/09/28 11:24:03;;;;;;;10.13;2.97;;;;;;;20.90;35.61;101619.44;4981663;28;20065;-69